Time;durP1;ratioP1;P1;durP2;ratioP2;P2;SDS_P1;SDS_P2;PMS_P1;PMS_P2;Temp;Humidity;BMP_temperature;BMP_pressure;BME280_temperature;BME280_humidity;BME280_pressure;Samples;Min_cycle;Max_cycle;Signal;HPM_P1;HPM_P2
2023/12/22 00:00:02;;;;;;;1.35;0.90;;;;;;;6.06;100.00;95663.91;1222564;75;2929083;-68
2023/12/22 00:02:35;;;;;;;1.50;1.20;;;;;;;5.59;100.00;95665.53;1223318;75;2925265;-70
2023/12/22 00:05:09;;;;;;;1.75;0.70;;;;;;;5.58;100.00;95645.81;1223305;75;2928864;-68
2023/12/22 00:07:42;;;;;;;1.15;0.80;;;;;;;5.57;100.00;95608.28;1224134;75;2931392;-69
2023/12/22 00:10:15;;;;;;;1.05;0.90;;;;;;;5.40;100.00;95630.72;1224780;75;2920794;-69
2023/12/22 00:12:50;;;;;;;1.55;0.90;;;;;;;5.49;100.00;95630.50;1224009;75;2927898;-69
2023/12/22 00:15:23;;;;;;;1.20;0.80;;;;;;;5.14;100.00;95592.91;1223716;75;2950941;-67
2023/12/22 00:17:56;;;;;;;1.10;0.90;;;;;;;4.80;100.00;95560.28;1223783;75;2966857;-67
2023/12/22 00:20:29;;;;;;;0.90;0.70;;;;;;;4.90;100.00;95555.38;1224156;75;2916262;-71
2023/12/22 00:23:02;;;;;;;0.80;0.70;;;;;;;4.91;100.00;95559.59;1224741;75;2919022;-68
2023/12/22 00:25:35;;;;;;;0.75;0.60;;;;;;;4.85;100.00;95578.53;1225024;75;2925928;-69
2023/12/22 00:28:10;;;;;;;0.75;0.70;;;;;;;4.63;100.00;95595.47;1223260;75;2921076;-67
2023/12/22 00:30:43;;;;;;;0.65;0.60;;;;;;;4.24;100.00;95616.94;1224517;75;2919568;-69
2023/12/22 00:33:16;;;;;;;1.95;1.00;;;;;;;3.80;100.00;95628.91;1224763;75;2916397;-70
2023/12/22 00:35:49;;;;;;;1.50;0.95;;;;;;;3.86;100.00;95610.03;1224499;75;2922598;-68
2023/12/22 00:38:21;;;;;;;0.90;0.80;;;;;;;4.05;100.00;95600.31;1223317;75;2922313;-67
2023/12/22 00:40:54;;;;;;;1.20;0.70;;;;;;;3.98;100.00;95565.56;1224347;75;2922036;-67
2023/12/22 00:43:30;;;;;;;0.75;0.60;;;;;;;3.97;100.00;95526.19;1224058;75;3030360;-68
2023/12/22 00:46:03;;;;;;;0.50;0.50;;;;;;;3.77;100.00;95492.59;1224917;75;2918776;-68
2023/12/22 00:48:35;;;;;;;0.85;0.50;;;;;;;4.97;100.00;95467.41;1224141;75;2923882;-68
2023/12/22 00:51:10;;;;;;;0.50;0.50;;;;;;;5.20;100.00;95542.16;1223121;75;2919871;-66
2023/12/22 00:53:43;;;;;;;0.40;0.40;;;;;;;6.02;100.00;95543.88;1223666;75;2924806;-67
2023/12/22 00:56:16;;;;;;;0.40;0.40;;;;;;;5.87;100.00;95619.41;1223823;75;2930884;-65
2023/12/22 00:58:51;;;;;;;0.40;0.40;;;;;;;5.84;100.00;95626.56;1222802;75;2934684;-68
2023/12/22 01:01:24;;;;;;;0.40;0.40;;;;;;;5.92;100.00;95630.28;1222978;75;2978923;-68
2023/12/22 01:03:56;;;;;;;0.95;0.60;;;;;;;5.73;100.00;95670.75;1223403;75;2928367;-69
2023/12/22 01:06:30;;;;;;;0.75;0.60;;;;;;;5.75;100.00;95700.88;1223528;75;2921297;-67
2023/12/22 01:09:02;;;;;;;0.60;0.50;;;;;;;5.69;100.00;95704.78;1223087;75;2923852;-67
2023/12/22 01:11:35;;;;;;;3.85;0.55;;;;;;;5.58;100.00;95702.03;1224362;75;2920958;-68
2023/12/22 01:14:12;;;;;;;0.40;0.40;;;;;;;5.58;100.00;95710.94;1224454;75;2925932;-67
2023/12/22 01:16:45;;;;;;;0.50;0.50;;;;;;;5.44;100.00;95739.03;1224068;75;2916425;-67
2023/12/22 01:19:18;;;;;;;0.65;0.50;;;;;;;5.33;100.00;95747.84;1224137;75;2925117;-68
2023/12/22 01:21:51;;;;;;;0.75;0.50;;;;;;;5.15;100.00;95764.53;1224456;75;2931307;-68
2023/12/22 01:24:24;;;;;;;0.80;0.60;;;;;;;5.10;100.00;95757.88;1225377;67;2920037;-67
2023/12/22 01:26:56;;;;;;;0.90;0.60;;;;;;;5.19;100.00;95735.22;1223976;75;2925078;-68
2023/12/22 01:29:32;;;;;;;0.70;0.55;;;;;;;5.14;100.00;95725.81;1224060;75;2922844;-67
2023/12/22 01:32:05;;;;;;;0.75;0.70;;;;;;;5.01;100.00;95737.09;1224688;75;2920765;-68
2023/12/22 01:34:37;;;;;;;1.15;0.80;;;;;;;4.87;100.00;95736.03;1224563;75;2941773;-69
2023/12/22 01:37:10;;;;;;;0.70;0.70;;;;;;;4.77;100.00;95770.00;1221954;75;2920774;-70
2023/12/22 01:39:43;;;;;;;1.00;0.60;;;;;;;5.01;100.00;95771.63;1225156;75;2915832;-66
2023/12/22 01:42:16;;;;;;;1.55;0.60;;;;;;;5.17;100.00;95787.25;1224638;75;2917617;-68
2023/12/22 01:44:51;;;;;;;0.85;0.55;;;;;;;5.30;100.00;95775.97;1224068;75;2928517;-67
2023/12/22 01:47:24;;;;;;;0.90;0.40;;;;;;;5.14;100.00;95780.06;1224508;75;2921284;-68
2023/12/22 01:49:57;;;;;;;0.35;0.35;;;;;;;5.40;100.00;95779.94;1223853;75;2922809;-69
2023/12/22 01:52:31;;;;;;;0.50;0.50;;;;;;;5.48;100.00;95772.84;1224075;75;2921553;-68
2023/12/22 01:55:04;;;;;;;0.55;0.50;;;;;;;5.42;100.00;95758.50;1224038;75;2924100;-68
2023/12/22 01:57:37;;;;;;;0.40;0.40;;;;;;;5.49;100.00;95768.16;1224051;75;2915930;-68
2023/12/22 02:00:16;;;;;;;0.40;0.40;;;;;;;5.43;100.00;95778.22;1224119;75;2922911;-69
2023/12/22 02:02:48;;;;;;;0.50;0.40;;;;;;;5.33;100.00;95786.56;1224151;75;2918190;-69
2023/12/22 02:05:21;;;;;;;0.50;0.40;;;;;;;5.32;100.00;95790.53;1224059;75;2922586;-68
2023/12/22 02:07:54;;;;;;;0.40;0.40;;;;;;;5.13;100.00;95786.72;1224744;75;2917035;-68
2023/12/22 02:10:27;;;;;;;0.50;0.50;;;;;;;5.09;100.00;95778.81;1224332;75;2914269;-67
2023/12/22 02:13:00;;;;;;;0.60;0.60;;;;;;;5.21;100.00;95773.44;1223521;75;2914135;-68
2023/12/22 02:15:37;;;;;;;0.55;0.50;;;;;;;5.02;100.00;95773.84;1225184;75;2922992;-68
2023/12/22 02:18:14;;;;;;;0.45;0.40;;;;;;;4.96;100.00;95775.78;1223543;75;2920732;-66
2023/12/22 02:20:49;;;;;;;1.30;1.20;;;;;;;4.62;100.00;95796.50;1224427;75;2920810;-70
2023/12/22 02:23:24;;;;;;;1.20;0.80;;;;;;;4.56;100.00;95831.66;1223884;75;2927385;-67
2023/12/22 02:26:09;;;;;;;0.70;0.70;;;;;;;4.64;100.00;95853.66;1223892;75;2920061;-69
2023/12/22 02:28:43;;;;;;;0.50;0.50;;;;;;;4.75;100.00;95872.72;1222711;75;2930011;-67
2023/12/22 02:31:26;;;;;;;1.40;0.55;;;;;;;4.86;100.00;95870.13;1223795;75;2927966;-71
2023/12/22 02:34:02;;;;;;;0.60;0.60;;;;;;;5.00;100.00;95879.31;1221636;75;2923074;-68
2023/12/22 02:36:39;;;;;;;0.40;0.40;;;;;;;5.04;100.00;95860.88;1223500;75;2928358;-68
2023/12/22 02:39:17;;;;;;;1.00;0.60;;;;;;;5.12;100.00;95842.94;1222617;75;2930428;-68
2023/12/22 02:41:50;;;;;;;1.00;0.50;;;;;;;5.14;100.00;95818.03;1223536;75;2930685;-67
2023/12/22 02:44:23;;;;;;;0.90;0.50;;;;;;;5.22;100.00;95815.59;1223355;75;2928977;-70
2023/12/22 02:46:56;;;;;;;0.30;0.30;;;;;;;5.15;100.00;95781.56;1223173;75;2923521;-70
2023/12/22 02:49:29;;;;;;;1.90;0.40;;;;;;;5.13;100.00;95800.28;1222975;75;2938872;-70
2023/12/22 02:52:02;;;;;;;0.30;0.30;;;;;;;5.09;100.00;95800.50;1223744;75;2923158;-67
2023/12/22 02:54:39;;;;;;;0.35;0.30;;;;;;;5.02;100.00;95789.38;1223847;75;2899023;-68
2023/12/22 02:57:12;;;;;;;0.40;0.40;;;;;;;4.99;100.00;95807.34;1222948;75;2924672;-69
2023/12/22 02:59:45;;;;;;;0.30;0.30;;;;;;;5.01;100.00;95812.31;1224244;75;2921459;-68
2023/12/22 03:02:18;;;;;;;0.20;0.20;;;;;;;4.95;100.00;95839.34;1223317;75;2929989;-69
2023/12/22 03:04:51;;;;;;;0.25;0.25;;;;;;;4.97;100.00;95825.31;1223573;75;2923518;-67
2023/12/22 03:07:24;;;;;;;0.40;0.40;;;;;;;4.94;100.00;95826.31;1224222;75;2919016;-68
2023/12/22 03:10:00;;;;;;;0.30;0.30;;;;;;;4.87;100.00;95835.63;1225208;75;2843882;-70
2023/12/22 03:12:32;;;;;;;2.70;0.50;;;;;;;4.82;100.00;95828.91;1223730;75;2920383;-69
2023/12/22 03:15:06;;;;;;;0.60;0.50;;;;;;;4.72;100.00;95829.59;1223990;75;2942308;-67
2023/12/22 03:17:39;;;;;;;0.30;0.30;;;;;;;4.56;100.00;95839.81;1222626;75;2930556;-68
2023/12/22 03:20:13;;;;;;;0.30;0.30;;;;;;;4.50;100.00;95836.31;1223574;75;2922967;-66
2023/12/22 03:22:46;;;;;;;0.65;0.30;;;;;;;4.44;100.00;95849.06;1224293;75;2924208;-67
2023/12/22 03:25:22;;;;;;;0.35;0.35;;;;;;;4.56;100.00;95858.78;1223233;75;2928437;-67
2023/12/22 03:27:54;;;;;;;0.30;0.30;;;;;;;4.79;100.00;95845.41;1224603;75;2920203;-68
2023/12/22 03:30:27;;;;;;;0.40;0.40;;;;;;;4.84;100.00;95860.97;1224475;75;2918043;-68
2023/12/22 03:33:00;;;;;;;0.60;0.60;;;;;;;4.85;100.00;95860.47;1222613;75;2916195;-68
2023/12/22 03:35:33;;;;;;;1.20;0.40;;;;;;;4.89;100.00;95858.31;1223141;75;2924499;-70
2023/12/22 03:38:06;;;;;;;0.45;0.30;;;;;;;4.87;100.00;95855.31;1224769;75;2919772;-70
2023/12/22 03:40:41;;;;;;;0.40;0.40;;;;;;;4.90;100.00;95878.75;1224759;75;2916776;-68
2023/12/22 03:43:14;;;;;;;0.55;0.35;;;;;;;4.95;100.00;95874.59;1224807;75;2919224;-70
2023/12/22 03:45:47;;;;;;;0.40;0.40;;;;;;;4.89;100.00;95884.69;1224962;75;2919297;-70
2023/12/22 03:48:20;;;;;;;2.90;2.05;;;;;;;4.85;100.00;95876.00;1222067;75;2923609;-69
2023/12/22 03:50:53;;;;;;;3.20;2.35;;;;;;;4.89;100.00;95868.41;1224185;75;2919281;-68
2023/12/22 03:53:25;;;;;;;5.25;3.75;;;;;;;4.87;100.00;95879.00;1225703;75;2924302;-68
2023/12/22 03:56:01;;;;;;;1.00;0.90;;;;;;;4.87;100.00;95906.09;1223293;75;2925548;-69
2023/12/22 03:58:33;;;;;;;0.65;0.55;;;;;;;4.87;100.00;95901.41;1224245;75;2922152;-68
2023/12/22 04:01:07;;;;;;;0.75;0.70;;;;;;;4.96;100.00;95922.22;1225757;75;2918035;-70
2023/12/22 04:03:40;;;;;;;3.90;2.15;;;;;;;4.79;100.00;95910.47;1224148;75;2918695;-71
2023/12/22 04:06:13;;;;;;;1.75;1.35;;;;;;;4.75;100.00;95913.38;1223735;75;2918743;-67
2023/12/22 04:08:46;;;;;;;1.20;0.90;;;;;;;4.82;100.00;95926.50;1223861;75;2924306;-69
2023/12/22 04:11:21;;;;;;;0.95;0.70;;;;;;;4.73;100.00;95934.06;1223612;67;2923068;-67
2023/12/22 04:13:54;;;;;;;0.60;0.40;;;;;;;4.66;100.00;95949.53;1224172;83;2926111;-71
2023/12/22 04:16:27;;;;;;;0.50;0.50;;;;;;;4.67;100.00;95959.16;1225135;75;2919635;-69
2023/12/22 04:19:00;;;;;;;0.45;0.45;;;;;;;4.77;100.00;95967.88;1223287;75;2920063;-70
2023/12/22 04:21:32;;;;;;;4.25;2.35;;;;;;;4.78;100.00;95960.47;1224095;75;2924710;-68
2023/12/22 04:24:05;;;;;;;2.95;2.00;;;;;;;4.70;100.00;95962.88;1224791;75;2922175;-68
2023/12/22 04:26:41;;;;;;;1.65;0.70;;;;;;;4.77;100.00;95965.16;1223816;75;2924322;-67
2023/12/22 04:29:14;;;;;;;0.30;0.30;;;;;;;4.79;100.00;95973.56;1224441;75;2926261;-68
2023/12/22 04:31:47;;;;;;;1.30;0.50;;;;;;;4.52;100.00;95958.50;1209577;75;4002203;-69
2023/12/22 04:34:20;;;;;;;1.65;0.60;;;;;;;4.65;100.00;95966.28;1223400;75;2933960;-70
2023/12/22 04:36:53;;;;;;;0.50;0.40;;;;;;;4.76;97.94;95984.59;1223453;75;2920724;-69
2023/12/22 04:39:25;;;;;;;0.40;0.40;;;;;;;4.93;89.89;95969.28;1224290;75;2926773;-71
2023/12/22 04:42:01;;;;;;;0.40;0.40;;;;;;;5.05;82.07;95953.81;1223841;68;2921642;-67
2023/12/22 04:44:34;;;;;;;0.90;0.50;;;;;;;5.12;79.18;95985.94;1223573;75;2929141;-68
2023/12/22 04:47:07;;;;;;;1.10;0.80;;;;;;;5.10;80.18;95972.13;1223637;75;2919770;-66
2023/12/22 04:49:40;;;;;;;1.90;1.20;;;;;;;4.93;84.06;95935.97;1223269;75;2939882;-67
2023/12/22 04:52:13;;;;;;;0.90;0.70;;;;;;;5.02;81.58;95920.28;1219312;75;3076450;-69
2023/12/22 04:54:46;;;;;;;0.45;0.45;;;;;;;4.96;81.48;95916.03;1224030;75;2920659;-69
2023/12/22 04:57:22;;;;;;;0.50;0.50;;;;;;;4.85;82.81;95949.94;1221915;75;2933107;-69
2023/12/22 04:59:55;;;;;;;0.60;0.60;;;;;;;4.69;85.11;95961.41;1223344;75;2921260;-68
2023/12/22 05:02:28;;;;;;;0.40;0.40;;;;;;;4.68;87.54;95930.09;1223454;75;2927696;-67
2023/12/22 05:05:03;;;;;;;0.40;0.40;;;;;;;4.54;88.89;95918.13;1223813;75;2929538;-69
2023/12/22 05:07:35;;;;;;;0.45;0.45;;;;;;;4.47;89.47;95930.13;1223213;75;2926860;-68
2023/12/22 05:10:09;;;;;;;0.50;0.50;;;;;;;4.43;90.23;95939.69;1223172;75;2933624;-67
2023/12/22 05:12:45;;;;;;;0.40;0.40;;;;;;;4.44;91.65;95927.63;1222809;75;2929443;-67
2023/12/22 05:15:18;;;;;;;0.70;0.40;;;;;;;4.33;91.03;95939.09;1223154;75;2932953;-68
2023/12/22 05:17:50;;;;;;;0.65;0.45;;;;;;;4.31;91.45;95940.78;1221206;75;2927229;-66
2023/12/22 05:20:23;;;;;;;0.50;0.50;;;;;;;4.20;92.86;95935.97;1223144;75;2935487;-67
2023/12/22 05:22:56;;;;;;;0.80;0.45;;;;;;;4.22;92.19;95939.69;1222619;75;2932164;-68
2023/12/22 05:25:29;;;;;;;0.40;0.40;;;;;;;4.22;92.09;95931.56;1221732;75;2929192;-68
2023/12/22 05:28:05;;;;;;;0.70;0.40;;;;;;;4.20;92.23;95933.28;1222819;75;2925336;-68
2023/12/22 05:30:37;;;;;;;0.50;0.50;;;;;;;4.29;90.53;95902.59;1223900;75;2924889;-69
2023/12/22 05:33:10;;;;;;;0.35;0.35;;;;;;;4.40;91.66;95906.16;1222889;75;2922390;-64
2023/12/22 05:35:43;;;;;;;0.70;0.45;;;;;;;4.41;90.87;95932.03;1223117;75;2935090;-66
2023/12/22 05:38:16;;;;;;;0.50;0.40;;;;;;;4.42;91.14;95925.38;1223642;75;2929709;-69
2023/12/22 05:40:50;;;;;;;0.30;0.30;;;;;;;4.42;92.04;95922.66;1223353;75;2931697;-68
2023/12/22 05:43:25;;;;;;;0.40;0.40;;;;;;;4.40;91.64;95957.66;1223857;75;2918380;-68
2023/12/22 05:46:00;;;;;;;1.75;0.40;;;;;;;4.34;90.42;95948.69;1224310;75;2936462;-67
2023/12/22 05:48:33;;;;;;;0.50;0.50;;;;;;;4.33;91.89;95941.81;1223139;75;2935607;-67
2023/12/22 05:51:07;;;;;;;16.75;11.20;;;;;;;4.35;91.56;95941.31;1222818;75;2922288;-68
2023/12/22 05:53:40;;;;;;;22.75;14.10;;;;;;;4.40;91.92;95943.34;1223369;75;2923799;-68
2023/12/22 05:56:21;;;;;;;40.50;25.40;;;;;;;4.18;93.41;95946.53;1224622;75;2918412;-67
2023/12/22 05:58:57;;;;;;;12.35;7.70;;;;;;;4.12;95.54;95970.84;1224777;75;2937415;-68
2023/12/22 06:01:30;;;;;;;8.45;5.35;;;;;;;4.19;97.22;95975.88;1224741;75;2926630;-66
2023/12/22 06:04:03;;;;;;;8.70;5.50;;;;;;;4.25;98.53;95971.25;1224725;75;2934601;-68
2023/12/22 06:06:35;;;;;;;7.00;4.65;;;;;;;4.19;97.54;95958.88;1225332;75;2919820;-68
2023/12/22 06:09:09;;;;;;;5.35;4.05;;;;;;;4.22;99.48;95972.19;1224180;75;2924282;-69
2023/12/22 06:11:44;;;;;;;4.15;3.05;;;;;;;3.97;100.00;95989.09;1224629;75;2934255;-66
2023/12/22 06:14:19;;;;;;;3.95;2.80;;;;;;;3.94;100.00;95990.78;1224529;75;2934705;-67
2023/12/22 06:16:53;;;;;;;2.85;1.80;;;;;;;3.55;100.00;95977.47;1221727;75;2925116;-67
2023/12/22 06:19:28;;;;;;;2.45;1.80;;;;;;;3.66;100.00;95974.19;1223600;75;2915630;-67
2023/12/22 06:22:01;;;;;;;1.85;1.30;;;;;;;3.45;100.00;95981.50;1223105;75;2924550;-66
2023/12/22 06:24:34;;;;;;;2.05;1.10;;;;;;;3.36;100.00;95990.44;1224040;75;2928012;-67
2023/12/22 06:27:08;;;;;;;1.70;0.90;;;;;;;3.53;100.00;95987.25;1223219;75;2934308;-67
2023/12/22 06:29:44;;;;;;;0.80;0.60;;;;;;;3.70;100.00;95982.84;1221555;75;2927099;-66
2023/12/22 06:32:17;;;;;;;1.50;0.80;;;;;;;3.79;100.00;95981.97;1220974;75;2926562;-68
2023/12/22 06:34:49;;;;;;;0.60;0.60;;;;;;;3.76;100.00;95991.03;1220816;75;2998668;-68
2023/12/22 06:37:22;;;;;;;0.60;0.60;;;;;;;3.82;100.00;95987.22;1221364;75;2919515;-66
2023/12/22 06:39:55;;;;;;;0.70;0.70;;;;;;;3.80;100.00;95991.56;1223864;75;2929354;-68
2023/12/22 06:42:28;;;;;;;0.75;0.65;;;;;;;3.83;100.00;95993.38;1221625;75;2928076;-67
2023/12/22 06:45:03;;;;;;;0.85;0.80;;;;;;;3.90;100.00;96003.06;1223114;75;2930152;-65
2023/12/22 06:47:36;;;;;;;2.45;0.90;;;;;;;3.93;100.00;96016.38;1190465;75;5391571;-68
2023/12/22 06:50:10;;;;;;;2.95;1.30;;;;;;;3.95;100.00;96015.91;1222786;75;2922698;-68
2023/12/22 06:52:46;;;;;;;1.10;0.70;;;;;;;4.07;100.00;96017.56;1222815;75;2925500;-68
2023/12/22 06:55:19;;;;;;;0.90;0.75;;;;;;;4.06;100.00;96021.47;1222130;75;2933945;-68
2023/12/22 06:57:52;;;;;;;0.95;0.70;;;;;;;4.16;100.00;96032.94;1222366;75;2931385;-67
2023/12/22 07:00:28;;;;;;;1.25;0.85;;;;;;;4.08;100.00;96037.25;1223948;75;2922588;-68
2023/12/22 07:03:01;;;;;;;1.05;0.90;;;;;;;4.09;100.00;96039.50;1222737;75;2923201;-67
2023/12/22 07:05:40;;;;;;;2.80;1.20;;;;;;;4.16;100.00;96051.88;1221717;75;2923031;-65
2023/12/22 07:08:12;;;;;;;1.10;0.80;;;;;;;4.29;100.00;96067.84;1223180;75;2929728;-67
2023/12/22 07:10:45;;;;;;;3.10;1.90;;;;;;;4.24;100.00;96059.16;1222236;75;2921333;-69
2023/12/22 07:13:18;;;;;;;3.25;1.95;;;;;;;4.17;100.00;96075.06;1222626;75;2946579;-67
2023/12/22 07:15:54;;;;;;;2.75;1.60;;;;;;;4.18;100.00;96085.41;1223077;75;2929831;-67
2023/12/22 07:18:30;;;;;;;8.20;4.80;;;;;;;4.17;100.00;96097.47;1223825;75;2928080;-67
2023/12/22 07:21:03;;;;;;;2.20;1.60;;;;;;;4.12;100.00;96075.72;1223493;75;2919167;-68
2023/12/22 07:23:36;;;;;;;2.15;1.45;;;;;;;4.08;100.00;96061.63;1224063;75;2920294;-68
2023/12/22 07:26:09;;;;;;;1.95;1.10;;;;;;;4.21;100.00;96062.03;1223632;75;2931626;-66
2023/12/22 07:28:44;;;;;;;1.25;0.95;;;;;;;4.33;100.00;96055.56;1221969;75;2931399;-68
2023/12/22 07:31:20;;;;;;;4.80;2.45;;;;;;;4.08;100.00;96054.25;1223769;75;2923696;-68
2023/12/22 07:33:53;;;;;;;2.05;1.15;;;;;;;4.03;100.00;96044.81;1222234;75;2933645;-67
2023/12/22 07:36:26;;;;;;;1.35;1.00;;;;;;;3.91;100.00;96037.75;1223401;75;2925820;-67
2023/12/22 07:39:00;;;;;;;1.15;1.05;;;;;;;3.94;100.00;96050.34;1222716;75;2926177;-68
2023/12/22 07:41:33;;;;;;;1.60;1.00;;;;;;;3.97;100.00;96054.84;1223183;75;2926081;-67
2023/12/22 07:44:06;;;;;;;1.35;0.85;;;;;;;4.11;100.00;96045.16;1223423;75;2928806;-67
2023/12/22 07:46:42;;;;;;;2.50;1.55;;;;;;;4.17;100.00;96043.28;1223056;75;2915836;-67
2023/12/22 07:49:15;;;;;;;1.65;1.30;;;;;;;4.36;100.00;96068.16;1223097;75;2919728;-70
2023/12/22 07:51:48;;;;;;;2.00;1.20;;;;;;;4.36;100.00;96049.22;1214871;75;3042607;-69
2023/12/22 07:54:21;;;;;;;2.35;1.60;;;;;;;4.18;100.00;96052.91;1222985;75;2926132;-69
2023/12/22 07:56:54;;;;;;;2.10;1.60;;;;;;;4.25;100.00;96052.50;1222388;75;2955607;-68
2023/12/22 07:59:27;;;;;;;1.90;1.40;;;;;;;4.34;100.00;96038.09;1223284;75;2932441;-68
2023/12/22 08:02:02;;;;;;;1.95;1.15;;;;;;;4.24;100.00;96053.00;1223802;75;2926269;-67
2023/12/22 08:04:36;;;;;;;2.10;1.50;;;;;;;4.27;100.00;96060.91;1223221;75;2921001;-66
2023/12/22 08:07:11;;;;;;;2.05;1.45;;;;;;;4.38;100.00;96071.16;1222550;75;2925540;-69
2023/12/22 08:09:44;;;;;;;3.35;2.10;;;;;;;4.38;100.00;96068.44;1223086;75;2927379;-68
2023/12/22 08:12:17;;;;;;;22.85;15.30;;;;;;;4.49;100.00;96070.53;1223633;75;2923317;-67
2023/12/22 08:14:50;;;;;;;21.30;14.20;;;;;;;4.73;100.00;96085.88;1223749;75;2936084;-67
2023/12/22 08:17:25;;;;;;;13.70;9.40;;;;;;;4.76;100.00;96088.34;1222900;75;2923924;-68
2023/12/22 08:19:58;;;;;;;3.75;2.00;;;;;;;4.25;100.00;96103.22;1223027;75;2927807;-70
2023/12/22 08:22:31;;;;;;;2.65;1.70;;;;;;;4.56;100.00;96091.81;1223382;75;2924586;-70
2023/12/22 08:25:04;;;;;;;9.70;6.30;;;;;;;4.33;100.00;96084.63;1224015;75;2927156;-68
2023/12/22 08:27:37;;;;;;;6.45;4.00;;;;;;;4.48;100.00;96077.19;1222764;75;2934833;-66
2023/12/22 08:30:12;;;;;;;15.50;7.95;;;;;;;4.64;100.00;96087.50;1223196;75;2939554;-67
2023/12/22 08:32:48;;;;;;;11.10;4.25;;;;;;;4.04;100.00;96103.19;1223502;75;2931694;-67
2023/12/22 08:35:20;;;;;;;4.40;2.25;;;;;;;4.32;100.00;96121.06;1223679;75;2924207;-67
2023/12/22 08:37:53;;;;;;;5.40;2.95;;;;;;;4.51;100.00;96105.31;1223305;75;2923458;-67
2023/12/22 08:40:26;;;;;;;5.60;3.45;;;;;;;4.37;100.00;96085.16;1222642;75;2928571;-67
2023/12/22 08:43:00;;;;;;;4.80;2.75;;;;;;;4.21;100.00;96089.13;1222715;75;2925502;-67
2023/12/22 08:45:32;;;;;;;4.90;2.20;;;;;;;4.05;100.00;96106.63;1224387;75;2919143;-65
2023/12/22 08:48:10;;;;;;;4.90;3.05;;;;;;;3.90;100.00;96112.09;1223468;75;2927593;-67
2023/12/22 08:50:43;;;;;;;5.20;3.10;;;;;;;4.12;100.00;96116.34;1224052;75;2929978;-66
2023/12/22 08:53:16;;;;;;;4.00;2.40;;;;;;;4.39;100.00;96124.13;1206723;75;4074143;-68
2023/12/22 08:55:49;;;;;;;3.50;2.45;;;;;;;4.43;100.00;96115.81;1223431;75;2923135;-67
2023/12/22 08:58:22;;;;;;;3.60;2.20;;;;;;;4.43;100.00;96113.84;1222901;75;2923655;-68
2023/12/22 09:00:55;;;;;;;3.25;1.50;;;;;;;4.57;100.00;96100.69;1223770;75;2922232;-66
2023/12/22 09:03:30;;;;;;;2.45;1.70;;;;;;;4.52;100.00;96099.41;1223102;75;2928093;-67
2023/12/22 09:06:03;;;;;;;1.90;1.40;;;;;;;4.45;100.00;96097.13;1222711;75;2929079;-67
2023/12/22 09:08:36;;;;;;;1.75;1.40;;;;;;;4.59;100.00;96092.84;1222359;75;2924465;-68
2023/12/22 09:11:09;;;;;;;1.60;1.30;;;;;;;4.63;100.00;96069.72;1222963;75;2932973;-69
2023/12/22 09:13:42;;;;;;;4.85;2.15;;;;;;;4.15;100.00;96089.06;1223996;75;2930627;-67
2023/12/22 09:16:16;;;;;;;3.40;1.05;;;;;;;4.09;100.00;96072.00;1223534;75;2926690;-67
2023/12/22 09:18:51;;;;;;;2.25;1.20;;;;;;;4.09;100.00;96090.19;1223179;75;2921532;-68
2023/12/22 09:21:24;;;;;;;1.75;1.10;;;;;;;4.16;100.00;96100.63;1222988;75;2920154;-65
2023/12/22 09:23:57;;;;;;;2.25;1.40;;;;;;;4.51;100.00;96100.63;1223835;75;2920523;-67
2023/12/22 09:26:30;;;;;;;1.00;0.90;;;;;;;4.53;100.00;96098.19;1222061;75;2927374;-66
2023/12/22 09:29:03;;;;;;;2.10;1.10;;;;;;;4.73;100.00;96105.59;1221029;75;2928323;-68
2023/12/22 09:31:36;;;;;;;1.20;0.90;;;;;;;4.60;100.00;96116.75;1220274;75;2927323;-66
2023/12/22 09:34:11;;;;;;;1.15;0.90;;;;;;;4.40;100.00;96101.25;1223179;75;2925771;-67
2023/12/22 09:36:44;;;;;;;2.35;1.25;;;;;;;4.55;100.00;96095.75;1222678;75;2919472;-69
2023/12/22 09:39:17;;;;;;;4.55;3.00;;;;;;;4.51;100.00;96097.91;1222129;75;2939711;-68
2023/12/22 09:41:53;;;;;;;1.75;1.40;;;;;;;4.32;100.00;96112.94;1222987;75;2931318;-67
2023/12/22 09:44:28;;;;;;;3.50;2.70;;;;;;;4.62;100.00;96108.91;1222424;75;2929740;-66
2023/12/22 09:47:02;;;;;;;3.80;2.60;;;;;;;4.53;100.00;96129.97;1221607;75;2926703;-67
2023/12/22 09:49:39;;;;;;;1.80;1.30;;;;;;;4.43;100.00;96126.63;1221557;75;2984627;-67
2023/12/22 09:52:13;;;;;;;2.25;1.80;;;;;;;4.66;100.00;96131.13;1222473;75;2925873;-68
2023/12/22 09:54:48;;;;;;;3.65;1.65;;;;;;;4.20;100.00;96150.69;1223612;75;2926544;-67
2023/12/22 09:57:21;;;;;;;3.20;1.80;;;;;;;4.07;100.00;96146.78;1222079;75;2925374;-66
2023/12/22 09:59:56;;;;;;;1.70;1.50;;;;;;;4.21;100.00;96108.09;1223558;75;2917267;-67
2023/12/22 10:02:31;;;;;;;3.20;1.50;;;;;;;4.32;100.00;96094.72;1222986;75;2927495;-66
2023/12/22 10:05:07;;;;;;;2.85;2.40;;;;;;;4.40;100.00;96136.47;1223047;75;2932590;-68
2023/12/22 10:07:40;;;;;;;1.75;1.20;;;;;;;4.21;100.00;96118.91;1221326;75;2932689;-69
2023/12/22 10:10:15;;;;;;;4.45;2.45;;;;;;;4.05;100.00;96147.25;1223452;75;2919115;-67
2023/12/22 10:12:49;;;;;;;2.75;1.75;;;;;;;4.04;100.00;96167.41;1223035;75;2922782;-66
2023/12/22 10:15:23;;;;;;;2.95;1.60;;;;;;;4.36;100.00;96135.91;1222468;75;2933303;-66
2023/12/22 10:17:57;;;;;;;5.35;2.25;;;;;;;4.02;100.00;96140.06;1222848;75;2927791;-69
2023/12/22 10:20:32;;;;;;;11.80;9.40;;;;;;;4.12;100.00;96160.41;1222088;75;2929027;-66
2023/12/22 10:23:05;;;;;;;5.40;4.55;;;;;;;4.15;100.00;96178.44;1223764;75;2922360;-67
2023/12/22 10:25:39;;;;;;;6.75;2.45;;;;;;;3.82;100.00;96194.88;1222533;75;2928115;-66
2023/12/22 10:28:15;;;;;;;8.80;3.55;;;;;;;3.93;100.00;96230.25;1222017;75;2939417;-67
2023/12/22 10:30:49;;;;;;;4.50;2.05;;;;;;;4.02;100.00;96232.13;1223083;75;2937678;-69
2023/12/22 10:33:23;;;;;;;3.35;1.60;;;;;;;4.21;100.00;96194.75;1222580;75;2929434;-67
2023/12/22 10:35:58;;;;;;;2.15;1.50;;;;;;;4.48;100.00;96172.78;1222580;75;2943051;-69
2023/12/22 10:38:37;;;;;;;2.45;1.60;;;;;;;4.38;100.00;96157.84;1222185;75;2929774;-67
2023/12/22 10:41:11;;;;;;;2.10;1.40;;;;;;;4.66;100.00;96150.09;1223286;75;2931575;-67
2023/12/22 10:43:44;;;;;;;1.70;1.35;;;;;;;4.60;100.00;96159.38;1224024;75;2930972;-66
2023/12/22 10:46:17;;;;;;;2.55;1.40;;;;;;;4.57;100.00;96120.44;1223281;75;2930046;-68
2023/12/22 10:48:50;;;;;;;3.25;1.80;;;;;;;4.36;100.00;96113.47;1221226;75;2922245;-67
2023/12/22 10:51:26;;;;;;;2.50;1.50;;;;;;;4.67;100.00;96096.66;1218544;75;2934523;-66
2023/12/22 10:53:59;;;;;;;1.65;1.30;;;;;;;4.97;100.00;96088.34;1221740;75;2929707;-69
2023/12/22 10:56:33;;;;;;;1.70;1.50;;;;;;;5.03;100.00;96125.19;1224681;75;2921539;-66
2023/12/22 10:59:07;;;;;;;2.90;2.40;;;;;;;5.05;100.00;96114.59;1222730;75;2938104;-67
2023/12/22 11:01:43;;;;;;;3.55;2.70;;;;;;;4.99;100.00;96092.09;1223299;75;2933861;-67
2023/12/22 11:04:22;;;;;;;2.60;2.40;;;;;;;5.20;100.00;96106.38;1223047;75;2928736;-67
2023/12/22 11:07:02;;;;;;;4.05;3.55;;;;;;;5.39;100.00;96101.38;1224188;75;2921458;-68
2023/12/22 11:09:38;;;;;;;5.15;3.65;;;;;;;5.16;100.00;96089.56;1223691;75;2938348;-68
2023/12/22 11:12:12;;;;;;;3.85;2.65;;;;;;;5.01;100.00;96080.78;1224118;75;2932280;-67
2023/12/22 11:14:46;;;;;;;3.65;2.10;;;;;;;5.14;100.00;96067.56;1225114;75;2922500;-67
2023/12/22 11:17:19;;;;;;;3.25;1.80;;;;;;;5.30;100.00;96074.41;1223968;75;2935343;-67
2023/12/22 11:19:56;;;;;;;2.90;1.75;;;;;;;5.17;100.00;96063.94;1224321;75;2923881;-67
2023/12/22 11:22:35;;;;;;;2.85;1.80;;;;;;;5.46;100.00;96067.63;1223565;75;2931341;-69
2023/12/22 11:25:10;;;;;;;2.70;1.70;;;;;;;5.31;100.00;96054.91;1224591;75;2935361;-68
2023/12/22 11:27:44;;;;;;;3.10;1.95;;;;;;;5.29;100.00;96059.34;1222701;75;2937867;-65
2023/12/22 11:30:19;;;;;;;8.20;2.65;;;;;;;4.95;100.00;96055.53;1224228;75;2918937;-69
2023/12/22 11:32:56;;;;;;;4.30;2.50;;;;;;;4.83;100.00;96065.53;1223943;75;2924176;-67
2023/12/22 11:35:30;;;;;;;3.40;2.40;;;;;;;4.91;100.00;96063.91;1223541;75;2925540;-68
2023/12/22 11:38:07;;;;;;;6.10;3.05;;;;;;;4.52;100.00;96072.28;1223423;75;2930975;-70
2023/12/22 11:40:40;;;;;;;5.85;3.75;;;;;;;4.38;100.00;96087.41;1223492;75;2926186;-67
2023/12/22 11:43:13;;;;;;;6.40;3.40;;;;;;;4.50;100.00;96107.28;1223565;75;2924217;-70
2023/12/22 11:45:46;;;;;;;6.85;3.45;;;;;;;4.27;100.00;96122.47;1223598;75;2920680;-67